This is the latest recevied weather packets stored in our database for station/object M0TJX-1. If no packets are shown the sender has not sent any weather packets the latest 10 day(s).
| Time | Temp. | Humidity | Pressure | Rain* | Wind** | Luminosity | Snow |
|---|---|---|---|---|---|---|---|
| 1788112518 | 18.33° C | 82% | 1005.3 hPa | 0 mm | - | - | - |
| 1788111618 | 18.33° C | 81% | 1005.4 hPa | 0 mm | - | - | - |
| 1788110718 | 18.89° C | 79% | 1005.5 hPa | 0 mm | - | - | - |
| 1788109818 | 18.89° C | 78% | 1005.5 hPa | 0 mm | - | - | - |
| 1788108918 | 18.89° C | 78% | 1005.7 hPa | 0 mm | - | - | - |
| 1788108018 | 18.89° C | 77% | 1005.8 hPa | 0 mm | - | - | - |
| 1788107118 | 19.44° C | 76% | 1005.8 hPa | 0 mm | - | - | - |
| 1788106218 | 19.44° C | 74% | 1005.7 hPa | 0 mm | - | - | - |
| 1788105318 | 19.44° C | 74% | 1005.7 hPa | 0 mm | - | - | - |
| 1788104418 | 19.44° C | 73% | 1005.5 hPa | 0 mm | - | - | - |
| 1788103518 | 20° C | 71% | 1005.5 hPa | 0 mm | - | - | - |
| 1788102618 | 20° C | 69% | 1005.9 hPa | 0 mm | - | - | - |
| 1788101718 | 20.56° C | 69% | 1006.3 hPa | 0 mm | - | - | - |
| 1788100818 | 20.56° C | 70% | 1006.3 hPa | 0 mm | - | - | - |
| 1788099918 | 20.56° C | 70% | 1006.6 hPa | 0 mm | - | - | - |
| 1788099018 | 21.11° C | 69% | 1006.8 hPa | 0 mm | - | - | - |
| 1788098118 | 21.67° C | 67% | 1006.8 hPa | 0 mm | - | - | - |
| 1788097218 | 22.22° C | 65% | 1006.8 hPa | 0 mm | - | - | - |
| 1788096318 | 21.11° C | 69% | 1007 hPa | 0 mm | - | - | - |
| 1788095418 | 20.56° C | 72% | 1007.2 hPa | 0 mm | - | - | - |
| 1788094518 | 20° C | 73% | 1007.5 hPa | 0 mm | - | - | - |
| 1788093618 | 20.56° C | 73% | 1007.5 hPa | 0 mm | - | - | - |
| 1788092718 | 21.11° C | 71% | 1007.6 hPa | 0 mm | - | - | - |
| 1788091818 | 21.11° C | 71% | 1007.6 hPa | 0.51 mm | - | - | - |
| 1788090918 | 20.56° C | 75% | 1007.6 hPa | 0.51 mm | - | - | - |
* Rain latest hour (hover to see other rain measurements)
** Current wind speed in m/s (hover to see current wind gust speed)